Time;durP1;ratioP1;P1;durP2;ratioP2;P2;SDS_P1;SDS_P2;PMS_P1;PMS_P2;Temp;Humidity;BMP_temperature;BMP_pressure;BME280_temperature;BME280_humidity;BME280_pressure;Samples;Min_cycle;Max_cycle;Signal;HPM_P1;HPM_P2
2023/01/30 00:01:45;;;;;;;13.65;9.95;;;;;;;;;;5116362;28;20235;-60
2023/01/30 00:04:13;;;;;;;17.42;10.90;;;;;;;;;;5116244;28;20192;-60
2023/01/30 00:06:40;;;;;;;13.40;10.27;;;;;;;;;;5116219;28;20614;-60
2023/01/30 00:09:07;;;;;;;11.93;8.88;;;;;;;;;;5116372;28;20585;-60
2023/01/30 00:11:35;;;;;;;13.93;9.60;;;;;;;;;;5116177;28;20218;-60
2023/01/30 00:14:02;;;;;;;14.18;10.90;;;;;;;;;;5116210;28;20185;-60
2023/01/30 00:16:29;;;;;;;14.32;10.77;;;;;;;;;;5116084;28;20276;-60
2023/01/30 00:18:56;;;;;;;13.18;10.80;;;;;;;;;;5115847;28;20190;-60
2023/01/30 00:21:23;;;;;;;15.52;11.20;;;;;;;;;;5116207;28;20189;-60
2023/01/30 00:23:50;;;;;;;14.88;10.85;;;;;;;;;;5116124;28;20193;-60
2023/01/30 00:26:17;;;;;;;14.25;11.00;;;;;;;;;;5116001;28;20280;-60
2023/01/30 00:28:45;;;;;;;15.30;9.90;;;;;;;;;;5115875;28;20644;-60
2023/01/30 00:31:12;;;;;;;14.90;10.35;;;;;;;;;;5115662;28;20228;-60
2023/01/30 00:33:39;;;;;;;13.10;10.90;;;;;;;;;;5115925;28;20188;-60
2023/01/30 00:36:07;;;;;;;13.82;10.30;;;;;;;;;;5115872;28;20195;-60
2023/01/30 00:38:33;;;;;;;13.23;11.05;;;;;;;;;;5115796;28;20220;-60
2023/01/30 00:41:00;;;;;;;13.93;10.25;;;;;;;;;;5115752;28;20185;-60
2023/01/30 00:49:00;;;;;;;16.17;11.55;;;;;;;;;;5115808;28;20191;-60
2023/01/30 00:51:27;;;;;;;12.75;11.15;;;;;;;;;;5115038;28;20186;-60
2023/01/30 00:53:54;;;;;;;14.50;11.18;;;;;;;;;;5115816;28;20194;-60
2023/01/30 00:56:21;;;;;;;17.05;11.75;;;;;;;;;;5115366;28;20224;-60
2023/01/30 00:58:48;;;;;;;15.88;11.55;;;;;;;;;;5115428;28;20647;-60
2023/01/30 01:01:16;;;;;;;14.57;11.02;;;;;;;;;;5115203;28;20675;-60
2023/01/30 01:03:43;;;;;;;13.77;10.70;;;;;;;;;;5115322;28;20190;-60
2023/01/30 01:06:10;;;;;;;13.50;10.30;;;;;;;;;;5115203;28;20185;-60
2023/01/30 01:08:37;;;;;;;17.92;11.52;;;;;;;;;;5114975;28;20649;-60
2023/01/30 01:11:04;;;;;;;13.52;11.40;;;;;;;;;;5114830;28;20215;-60
2023/01/30 01:13:31;;;;;;;15.50;11.13;;;;;;;;;;5115027;28;20217;-60
2023/01/30 01:15:58;;;;;;;15.18;11.40;;;;;;;;;;5115085;28;20195;-60
2023/01/30 01:18:27;;;;;;;14.15;11.10;;;;;;;;;;5114919;28;20549;-60
2023/01/30 01:20:54;;;;;;;14.45;11.60;;;;;;;;;;5114808;28;20239;-60
2023/01/30 01:23:21;;;;;;;19.50;13.70;;;;;;;;;;5114729;28;20641;-60
2023/01/30 01:25:47;;;;;;;16.15;11.93;;;;;;;;;;5114658;28;20188;-60
2023/01/30 01:28:17;;;;;;;14.60;11.57;;;;;;;;;;5114731;28;20185;-60
2023/01/30 01:30:44;;;;;;;14.07;11.20;;;;;;;;;;5114731;28;20281;-60
2023/01/30 01:33:11;;;;;;;17.05;12.48;;;;;;;;;;5114527;28;20231;-60
2023/01/30 01:35:42;;;;;;;14.40;10.95;;;;;;;;;;5114517;28;20280;-60
2023/01/30 01:38:09;;;;;;;17.45;12.98;;;;;;;;;;5114423;28;20189;-60
2023/01/30 01:43:21;;;;;;;16.45;11.30;;;;;;;;;;5114431;28;20277;-60
2023/01/30 01:45:50;;;;;;;17.08;12.75;;;;;;;;;;5114271;28;20691;-60
2023/01/30 01:48:21;;;;;;;19.05;12.15;;;;;;;;;;5114272;28;20529;-60
2023/01/30 01:50:52;;;;;;;16.27;11.88;;;;;;;;;;5114142;28;20197;-60
2023/01/30 01:53:21;;;;;;;18.20;13.00;;;;;;;;;;5114249;28;20220;-60
2023/01/30 01:55:50;;;;;;;18.20;13.60;;;;;;;;;;5114194;28;20192;-60
2023/01/30 01:58:18;;;;;;;19.42;13.88;;;;;;;;;;5114149;28;20189;-60
2023/01/30 02:00:45;;;;;;;17.13;12.48;;;;;;;;;;5114141;28;20192;-60
2023/01/30 02:03:15;;;;;;;17.65;12.52;;;;;;;;;;5113260;28;20203;-60
2023/01/30 02:05:44;;;;;;;20.05;13.20;;;;;;;;;;5114072;28;20200;-60
2023/01/30 02:08:14;;;;;;;17.70;13.07;;;;;;;;;;5114208;28;20193;-60
2023/01/30 02:10:45;;;;;;;18.50;13.75;;;;;;;;;;5113932;28;20189;-60
2023/01/30 02:13:12;;;;;;;19.75;13.38;;;;;;;;;;5113789;28;20228;-60
2023/01/30 02:15:40;;;;;;;19.00;13.65;;;;;;;;;;5113753;28;20530;-60
2023/01/30 02:18:07;;;;;;;18.50;13.93;;;;;;;;;;5113833;28;20279;-60
2023/01/30 02:20:40;;;;;;;18.13;14.02;;;;;;;;;;5113830;28;20211;-60
2023/01/30 02:23:24;;;;;;;18.92;13.57;;;;;;;;;;5113791;28;20202;-60
2023/01/30 02:26:09;;;;;;;15.75;12.20;;;;;;;;;;5113706;28;20667;-60
2023/01/30 02:28:52;;;;;;;18.30;12.50;;;;;;;;;;5113740;28;20219;-60
2023/01/30 02:31:27;;;;;;;18.30;12.93;;;;;;;;;;5113627;28;20292;-60
2023/01/30 02:34:01;;;;;;;17.73;13.27;;;;;;;;;;5113512;28;20226;-60
2023/01/30 02:36:32;;;;;;;15.98;12.68;;;;;;;;;;5113455;28;20547;-60
2023/01/30 02:39:03;;;;;;;24.05;14.52;;;;;;;;;;5113636;28;20456;-60
2023/01/30 02:41:35;;;;;;;17.73;13.60;;;;;;;;;;5113531;28;20188;-60
2023/01/30 02:44:04;;;;;;;18.15;13.30;;;;;;;;;;5113464;28;20246;-60
2023/01/30 02:46:35;;;;;;;16.73;12.82;;;;;;;;;;5113326;28;20715;-60
2023/01/30 02:49:04;;;;;;;19.05;13.82;;;;;;;;;;5113274;28;20292;-60
2023/01/30 02:51:33;;;;;;;16.73;13.18;;;;;;;;;;5113428;28;20357;-60
2023/01/30 02:54:00;;;;;;;17.80;12.90;;;;;;;;;;5113355;28;20220;-60
2023/01/30 02:56:27;;;;;;;19.48;12.60;;;;;;;;;;5113332;28;20189;-60
2023/01/30 02:58:56;;;;;;;18.40;13.98;;;;;;;;;;5113262;28;20279;-60
2023/01/30 03:01:31;;;;;;;18.25;13.63;;;;;;;;;;5113202;28;20185;-60
2023/01/30 03:04:08;;;;;;;19.50;14.00;;;;;;;;;;5113357;28;20192;-60
2023/01/30 03:06:43;;;;;;;18.70;13.10;;;;;;;;;;5113332;28;20199;-60
2023/01/30 03:09:16;;;;;;;18.38;12.75;;;;;;;;;;5113250;28;20196;-60
2023/01/30 03:11:46;;;;;;;21.13;14.48;;;;;;;;;;5113143;28;20199;-60
2023/01/30 03:14:19;;;;;;;19.63;14.45;;;;;;;;;;5115941;28;20705;-60
2023/01/30 03:16:47;;;;;;;17.98;13.77;;;;;;;;;;5117337;28;20276;-60
2023/01/30 03:19:16;;;;;;;22.00;14.20;;;;;;;;;;5117127;28;20191;-60
2023/01/30 03:21:43;;;;;;;20.20;13.82;;;;;;;;;;5117562;28;20189;-60
2023/01/30 03:24:11;;;;;;;19.15;13.85;;;;;;;;;;5117181;28;20264;-60
2023/01/30 03:26:41;;;;;;;25.02;15.32;;;;;;;;;;5117164;28;20614;-60
2023/01/30 03:29:08;;;;;;;20.38;14.07;;;;;;;;;;5117376;28;20193;-60
2023/01/30 03:31:34;;;;;;;22.48;13.85;;;;;;;;;;5117629;28;20555;-60
2023/01/30 03:34:01;;;;;;;20.05;13.65;;;;;;;;;;5116950;28;20226;-60
2023/01/30 03:36:30;;;;;;;22.52;14.05;;;;;;;;;;5116871;28;20186;-60
2023/01/30 03:38:57;;;;;;;18.90;13.40;;;;;;;;;;5116727;28;20280;-60
2023/01/30 03:41:24;;;;;;;20.15;14.90;;;;;;;;;;5117185;28;20195;-60
2023/01/30 03:43:50;;;;;;;20.63;14.55;;;;;;;;;;5116839;28;20194;-60
2023/01/30 03:46:17;;;;;;;19.15;13.27;;;;;;;;;;5116701;28;20220;-60
2023/01/30 03:48:44;;;;;;;20.98;14.60;;;;;;;;;;5116653;28;20239;-60
2023/01/30 03:51:11;;;;;;;18.63;14.73;;;;;;;;;;5116679;28;20546;-60
2023/01/30 03:53:39;;;;;;;23.30;15.80;;;;;;;;;;5116292;28;20230;-60
2023/01/30 03:56:06;;;;;;;20.23;14.30;;;;;;;;;;5116658;28;20191;-60
2023/01/30 03:58:33;;;;;;;21.30;13.98;;;;;;;;;;5116463;28;20190;-60
2023/01/30 04:01:00;;;;;;;17.02;13.07;;;;;;;;;;5116771;28;20189;-60
2023/01/30 04:03:27;;;;;;;18.45;13.63;;;;;;;;;;5116354;28;20186;-60
2023/01/30 04:05:54;;;;;;;18.50;13.95;;;;;;;;;;5116168;28;20196;-61
2023/01/30 04:08:21;;;;;;;19.42;13.85;;;;;;;;;;5116327;28;20542;-60
2023/01/30 04:10:49;;;;;;;18.65;12.70;;;;;;;;;;5116286;28;20201;-60
2023/01/30 04:13:16;;;;;;;16.15;12.20;;;;;;;;;;5116192;28;20225;-60
2023/01/30 04:15:43;;;;;;;15.50;12.20;;;;;;;;;;5116169;28;20189;-60
2023/01/30 04:18:10;;;;;;;18.90;14.10;;;;;;;;;;5116070;28;20189;-60
2023/01/30 04:20:37;;;;;;;19.35;14.30;;;;;;;;;;5115886;28;20196;-60
2023/01/30 04:23:04;;;;;;;16.55;12.95;;;;;;;;;;5116101;28;20193;-59
2023/01/30 04:25:31;;;;;;;19.25;13.82;;;;;;;;;;5115361;28;20541;-59
2023/01/30 04:27:59;;;;;;;19.60;13.32;;;;;;;;;;5115940;28;20551;-59
2023/01/30 04:30:26;;;;;;;19.13;13.60;;;;;;;;;;5115881;28;20197;-59
2023/01/30 04:32:53;;;;;;;22.75;13.35;;;;;;;;;;5115696;28;20209;-59
2023/01/30 04:35:20;;;;;;;17.48;12.27;;;;;;;;;;5115611;28;20276;-60
2023/01/30 04:37:47;;;;;;;18.38;12.48;;;;;;;;;;5115578;28;20657;-60
2023/01/30 04:40:14;;;;;;;20.13;13.45;;;;;;;;;;5115665;28;20216;-60
2023/01/30 04:42:41;;;;;;;16.75;12.93;;;;;;;;;;5115638;28;20281;-59
2023/01/30 04:45:10;;;;;;;17.60;12.80;;;;;;;;;;5115360;28;20577;-59
2023/01/30 04:47:37;;;;;;;18.65;13.75;;;;;;;;;;5115349;28;20195;-60
2023/01/30 04:50:04;;;;;;;16.35;12.18;;;;;;;;;;5115501;28;20193;-59
2023/01/30 04:52:31;;;;;;;18.67;13.35;;;;;;;;;;5115429;28;20194;-60
2023/01/30 04:54:58;;;;;;;19.17;12.77;;;;;;;;;;5115541;28;20184;-60
2023/01/30 04:57:25;;;;;;;15.98;13.07;;;;;;;;;;5115352;28;20282;-60
2023/01/30 04:59:52;;;;;;;17.17;13.23;;;;;;;;;;5115163;28;20191;-59
2023/01/30 05:02:20;;;;;;;17.60;12.90;;;;;;;;;;5115099;28;20195;-60
2023/01/30 05:04:49;;;;;;;18.88;12.15;;;;;;;;;;5115329;28;20193;-60
2023/01/30 05:07:16;;;;;;;18.55;12.60;;;;;;;;;;5115160;28;20295;-60
2023/01/30 05:09:43;;;;;;;17.65;13.63;;;;;;;;;;5115033;28;20194;-59
2023/01/30 05:12:10;;;;;;;16.17;12.45;;;;;;;;;;5114996;28;20280;-59
2023/01/30 05:14:40;;;;;;;15.60;12.10;;;;;;;;;;5115078;28;20309;-60
2023/01/30 05:17:07;;;;;;;17.30;13.10;;;;;;;;;;5115060;28;20186;-59
2023/01/30 05:19:35;;;;;;;16.42;12.73;;;;;;;;;;5114855;28;20564;-61
2023/01/30 05:22:02;;;;;;;18.58;12.57;;;;;;;;;;5114838;28;20275;-60
2023/01/30 05:24:29;;;;;;;18.02;13.20;;;;;;;;;;5114633;28;20671;-62
2023/01/30 05:26:56;;;;;;;17.42;11.90;;;;;;;;;;5114792;28;20188;-61
2023/01/30 05:29:23;;;;;;;15.80;12.23;;;;;;;;;;5114505;28;20276;-62
2023/01/30 05:31:50;;;;;;;16.38;12.30;;;;;;;;;;5114737;28;20189;-61
2023/01/30 05:34:17;;;;;;;18.10;12.15;;;;;;;;;;5114911;28;20212;-61
2023/01/30 05:36:45;;;;;;;18.55;12.88;;;;;;;;;;5113595;28;20542;-60
2023/01/30 05:39:12;;;;;;;17.52;13.32;;;;;;;;;;5114335;28;20185;-60
2023/01/30 05:41:39;;;;;;;18.25;13.30;;;;;;;;;;5114365;28;20193;-59
2023/01/30 05:44:06;;;;;;;14.23;11.65;;;;;;;;;;5114193;28;20186;-59
2023/01/30 05:46:33;;;;;;;14.10;10.80;;;;;;;;;;5114336;28;20193;-59
2023/01/30 05:49:00;;;;;;;15.63;12.00;;;;;;;;;;5114389;28;20217;-59
2023/01/30 05:51:27;;;;;;;16.73;12.45;;;;;;;;;;5114197;28;20652;-62
2023/01/30 05:53:55;;;;;;;16.42;11.68;;;;;;;;;;5114086;28;20561;-59
2023/01/30 05:56:23;;;;;;;15.60;11.45;;;;;;;;;;5114027;28;20201;-59
2023/01/30 05:58:51;;;;;;;16.05;11.60;;;;;;;;;;5114255;28;20204;-59
2023/01/30 06:01:18;;;;;;;19.80;12.38;;;;;;;;;;5114156;28;20219;-59
2023/01/30 06:03:45;;;;;;;17.90;13.07;;;;;;;;;;5114016;28;20193;-59
2023/01/30 06:06:12;;;;;;;17.50;11.93;;;;;;;;;;5113983;28;20196;-59
2023/01/30 06:08:39;;;;;;;14.50;10.93;;;;;;;;;;5113770;28;20192;-60
2023/01/30 06:11:09;;;;;;;15.50;11.57;;;;;;;;;;5113720;28;20190;-59
2023/01/30 06:13:37;;;;;;;19.48;12.75;;;;;;;;;;5113914;28;20709;-60
2023/01/30 06:16:04;;;;;;;19.23;13.45;;;;;;;;;;5113830;28;20193;-60
2023/01/30 06:18:31;;;;;;;20.33;13.10;;;;;;;;;;5114041;28;20199;-59
2023/01/30 06:20:58;;;;;;;16.15;12.10;;;;;;;;;;5113740;28;20202;-60
2023/01/30 06:23:25;;;;;;;21.77;12.93;;;;;;;;;;5113512;28;20192;-60
2023/01/30 06:25:52;;;;;;;16.98;12.10;;;;;;;;;;5113525;28;20186;-60
2023/01/30 06:28:20;;;;;;;21.35;12.52;;;;;;;;;;5113498;28;20190;-60
2023/01/30 06:30:47;;;;;;;17.70;12.25;;;;;;;;;;5113566;28;20291;-60
2023/01/30 06:33:14;;;;;;;18.40;12.65;;;;;;;;;;5113124;28;20196;-60
2023/01/30 06:35:42;;;;;;;18.50;13.05;;;;;;;;;;5113289;28;20245;-60
2023/01/30 06:38:10;;;;;;;20.77;14.55;;;;;;;;;;5113218;28;20666;-59
2023/01/30 06:40:37;;;;;;;18.52;13.60;;;;;;;;;;5113488;28;20216;-60
2023/01/30 06:43:04;;;;;;;21.23;13.15;;;;;;;;;;5113495;28;20280;-62
2023/01/30 06:45:32;;;;;;;16.77;11.85;;;;;;;;;;5113283;28;20227;-60
2023/01/30 06:47:59;;;;;;;16.73;11.48;;;;;;;;;;5112890;28;20619;-61
2023/01/30 06:50:27;;;;;;;17.38;12.77;;;;;;;;;;5112978;28;20188;-61
2023/01/30 06:52:54;;;;;;;21.75;13.88;;;;;;;;;;5113181;28;20669;-61
2023/01/30 06:55:22;;;;;;;19.20;12.25;;;;;;;;;;5113299;28;20213;-60
2023/01/30 06:57:50;;;;;;;18.77;12.68;;;;;;;;;;5113243;28;20215;-60
2023/01/30 07:00:18;;;;;;;19.10;12.60;;;;;;;;;;5113285;28;20276;-60
2023/01/30 07:02:46;;;;;;;19.70;12.57;;;;;;;;;;5113017;28;20708;-60
2023/01/30 07:05:13;;;;;;;21.60;14.32;;;;;;;;;;5112986;28;20609;-60
2023/01/30 07:07:40;;;;;;;20.50;11.45;;;;;;;;;;5113320;28;20548;-60
2023/01/30 07:10:08;;;;;;;21.30;12.90;;;;;;;;;;5113168;28;20185;-60
2023/01/30 07:12:35;;;;;;;18.98;11.82;;;;;;;;;;5113113;28;20194;-61
2023/01/30 07:15:02;;;;;;;16.23;11.50;;;;;;;;;;5112980;28;20321;-60
2023/01/30 07:17:29;;;;;;;17.27;11.90;;;;;;;;;;5112954;28;20216;-60
2023/01/30 07:19:58;;;;;;;17.52;11.45;;;;;;;;;;5112728;28;20652;-60
2023/01/30 07:22:25;;;;;;;16.23;10.82;;;;;;;;;;5112960;28;20194;-60
2023/01/30 07:24:51;;;;;;;19.00;11.90;;;;;;;;;;5113286;28;20270;-60
2023/01/30 07:27:18;;;;;;;15.98;12.15;;;;;;;;;;5113025;28;20216;-60
2023/01/30 07:29:45;;;;;;;19.23;13.07;;;;;;;;;;5112886;28;20195;-60
2023/01/30 07:32:15;;;;;;;16.58;10.50;;;;;;;;;;5112804;28;20289;-60
2023/01/30 07:34:42;;;;;;;15.40;11.38;;;;;;;;;;5113220;28;20239;-60
2023/01/30 07:37:10;;;;;;;14.52;10.77;;;;;;;;;;5112834;28;20555;-60
2023/01/30 07:39:37;;;;;;;17.52;11.73;;;;;;;;;;5112987;28;20557;-60
2023/01/30 07:42:05;;;;;;;17.30;11.52;;;;;;;;;;5112621;28;20246;-60
2023/01/30 07:44:32;;;;;;;14.23;10.65;;;;;;;;;;5112454;28;20275;-60
2023/01/30 07:46:59;;;;;;;15.57;10.57;;;;;;;;;;5112510;28;20561;-60
2023/01/30 07:49:26;;;;;;;13.43;9.98;;;;;;;;;;5112439;28;20667;-60
2023/01/30 07:51:53;;;;;;;13.95;11.30;;;;;;;;;;5112550;28;20201;-60
2023/01/30 07:54:22;;;;;;;15.00;10.38;;;;;;;;;;5112410;28;20224;-61
2023/01/30 07:56:49;;;;;;;15.82;10.30;;;;;;;;;;5112596;28;20186;-60
2023/01/30 07:59:16;;;;;;;15.30;9.82;;;;;;;;;;5112801;28;20655;-60
2023/01/30 08:01:42;;;;;;;12.98;9.98;;;;;;;;;;5116652;28;20281;-60
2023/01/30 08:04:09;;;;;;;13.57;9.55;;;;;;;;;;5116897;28;20205;-60
2023/01/30 08:06:38;;;;;;;13.98;9.68;;;;;;;;;;5116228;28;20199;-60
2023/01/30 08:09:05;;;;;;;15.27;9.68;;;;;;;;;;5116079;28;20189;-60
2023/01/30 08:11:33;;;;;;;12.60;9.05;;;;;;;;;;5116102;28;20193;-60
2023/01/30 08:14:00;;;;;;;13.45;9.38;;;;;;;;;;5116071;28;20206;-60
2023/01/30 08:16:27;;;;;;;14.18;10.30;;;;;;;;;;5115730;28;20451;-60
2023/01/30 08:18:54;;;;;;;11.23;8.98;;;;;;;;;;5116088;28;20618;-61
2023/01/30 08:21:21;;;;;;;16.08;10.95;;;;;;;;;;5115942;28;20186;-59
2023/01/30 08:23:48;;;;;;;17.85;11.60;;;;;;;;;;5115681;28;20195;-61
2023/01/30 08:26:15;;;;;;;14.85;9.93;;;;;;;;;;5115772;28;20185;-60
2023/01/30 08:28:43;;;;;;;14.35;9.02;;;;;;;;;;5115320;28;20197;-61
2023/01/30 08:31:11;;;;;;;13.13;9.48;;;;;;;;;;5115715;28;20213;-60
2023/01/30 08:33:38;;;;;;;13.02;10.02;;;;;;;;;;5115529;28;20285;-60
2023/01/30 08:36:05;;;;;;;12.85;8.90;;;;;;;;;;5114792;28;20299;-60
2023/01/30 08:38:32;;;;;;;12.48;8.88;;;;;;;;;;5115567;28;20191;-60
2023/01/30 08:40:59;;;;;;;13.73;9.50;;;;;;;;;;5115303;28;20276;-59
2023/01/30 08:43:27;;;;;;;12.25;8.95;;;;;;;;;;5115282;28;20649;-60
2023/01/30 08:45:55;;;;;;;11.82;8.07;;;;;;;;;;5115520;28;20320;-61
2023/01/30 08:48:22;;;;;;;16.35;10.57;;;;;;;;;;5115268;28;20218;-62
2023/01/30 08:50:51;;;;;;;12.82;9.75;;;;;;;;;;5115257;28;20570;-58
2023/01/30 08:53:19;;;;;;;12.57;8.90;;;;;;;;;;5115215;28;20186;-60
2023/01/30 08:55:45;;;;;;;12.75;8.90;;;;;;;;;;5115053;28;20306;-60
2023/01/30 08:58:12;;;;;;;10.45;7.85;;;;;;;;;;5115164;28;20196;-60
2023/01/30 09:00:43;;;;;;;10.73;8.90;;;;;;;;;;5115144;28;20197;-59
2023/01/30 09:03:11;;;;;;;13.10;8.93;;;;;;;;;;5115050;28;20186;-60
2023/01/30 09:05:38;;;;;;;14.00;9.80;;;;;;;;;;5114941;28;20192;-59
2023/01/30 09:08:05;;;;;;;15.90;9.25;;;;;;;;;;5114802;28;20250;-59
2023/01/30 09:10:32;;;;;;;13.63;9.27;;;;;;;;;;5114747;28;20187;-61
2023/01/30 09:12:59;;;;;;;12.02;8.27;;;;;;;;;;5114801;28;20197;-59
2023/01/30 09:15:26;;;;;;;9.57;8.00;;;;;;;;;;5114731;28;20645;-61
2023/01/30 09:17:53;;;;;;;9.82;7.15;;;;;;;;;;5114676;28;20186;-60
2023/01/30 09:20:22;;;;;;;11.07;8.93;;;;;;;;;;5114672;28;20194;-58
2023/01/30 09:22:49;;;;;;;11.00;7.82;;;;;;;;;;5114353;28;20709;-59
2023/01/30 09:25:16;;;;;;;12.20;7.95;;;;;;;;;;5114675;28;20186;-59
2023/01/30 09:27:43;;;;;;;11.50;8.60;;;;;;;;;;5114746;28;20194;-61
2023/01/30 09:30:11;;;;;;;10.43;8.00;;;;;;;;;;5114380;28;20663;-59
2023/01/30 09:32:38;;;;;;;10.10;7.73;;;;;;;;;;5113939;28;20452;-60
2023/01/30 09:35:07;;;;;;;10.65;7.95;;;;;;;;;;5114051;28;20473;-60
2023/01/30 09:37:35;;;;;;;10.70;7.72;;;;;;;;;;5114192;28;20244;-60
2023/01/30 09:40:03;;;;;;;12.20;8.57;;;;;;;;;;5114312;28;20193;-61
2023/01/30 09:42:34;;;;;;;11.32;8.13;;;;;;;;;;5114324;28;20618;-63
2023/01/30 09:45:11;;;;;;;10.82;7.55;;;;;;;;;;5113918;28;20576;-63
2023/01/30 09:47:42;;;;;;;9.43;8.02;;;;;;;;;;5114160;28;20194;-62
2023/01/30 09:50:17;;;;;;;11.60;7.63;;;;;;;;;;5113363;28;20602;-61
2023/01/30 09:52:53;;;;;;;8.88;6.28;;;;;;;;;;5113914;28;20935;-60
2023/01/30 09:55:22;;;;;;;7.40;5.60;;;;;;;;;;5114071;28;20218;-60
2023/01/30 09:57:49;;;;;;;8.13;6.35;;;;;;;;;;5113892;28;20221;-60
2023/01/30 10:00:20;;;;;;;6.88;4.85;;;;;;;;;;5113281;28;20191;-59
2023/01/30 10:02:50;;;;;;;6.95;4.00;;;;;;;;;;5114003;28;20274;-59
2023/01/30 10:05:17;;;;;;;5.23;3.93;;;;;;;;;;5113676;28;20194;-58
2023/01/30 10:07:54;;;;;;;4.20;3.80;;;;;;;;;;5113753;28;20457;-55
2023/01/30 10:10:27;;;;;;;6.57;3.60;;;;;;;;;;5113860;28;20281;-60
2023/01/30 10:13:00;;;;;;;4.70;2.65;;;;;;;;;;5113712;28;20290;-60
2023/01/30 10:15:31;;;;;;;4.47;3.33;;;;;;;;;;5113915;28;20229;-59
2023/01/30 10:18:13;;;;;;;5.80;2.60;;;;;;;;;;5113738;28;20453;-60
2023/01/30 10:20:44;;;;;;;2.50;2.03;;;;;;;;;;5111350;28;20190;-61
2023/01/30 10:23:20;;;;;;;2.83;2.13;;;;;;;;;;5112813;28;20518;-61
2023/01/30 10:25:49;;;;;;;4.90;3.73;;;;;;;;;;5113785;28;20646;-61
2023/01/30 10:28:19;;;;;;;7.00;2.25;;;;;;;;;;5113552;28;20467;-62
2023/01/30 10:30:46;;;;;;;2.23;1.90;;;;;;;;;;5113315;28;20199;-59
2023/01/30 10:33:19;;;;;;;7.33;2.60;;;;;;;;;;5113268;28;20548;-61
2023/01/30 10:35:58;;;;;;;7.70;1.80;;;;;;;;;;5113182;28;20483;-64
2023/01/30 10:38:30;;;;;;;6.20;1.77;;;;;;;;;;5113473;28;20457;-64
2023/01/30 10:41:01;;;;;;;6.53;1.70;;;;;;;;;;5113187;28;20536;-61
2023/01/30 10:43:31;;;;;;;6.83;1.80;;;;;;;;;;5113234;28;20207;-60
2023/01/30 10:46:02;;;;;;;4.53;1.93;;;;;;;;;;5112494;28;20904;-61
2023/01/30 10:48:50;;;;;;;5.60;2.10;;;;;;;;;;5113078;28;20449;-59
2023/01/30 10:51:25;;;;;;;5.57;2.85;;;;;;;;;;5106675;28;20483;-60
2023/01/30 10:53:58;;;;;;;5.63;1.90;;;;;;;;;;5113458;28;20272;-62
2023/01/30 10:56:29;;;;;;;4.65;1.88;;;;;;;;;;5112832;28;20481;-60
2023/01/30 10:59:00;;;;;;;5.73;2.03;;;;;;;;;;5113255;28;20281;-61
2023/01/30 11:01:32;;;;;;;5.47;2.03;;;;;;;;;;5113330;28;20458;-64
2023/01/30 11:04:02;;;;;;;10.33;3.10;;;;;;;;;;5113134;28;20782;-61
2023/01/30 11:06:29;;;;;;;9.20;2.57;;;;;;;;;;5113164;28;20970;-60
2023/01/30 11:08:58;;;;;;;12.03;3.23;;;;;;;;;;5112945;28;20449;-59
2023/01/30 11:11:29;;;;;;;4.77;3.20;;;;;;;;;;5113111;28;20444;-61
2023/01/30 11:14:03;;;;;;;8.43;1.83;;;;;;;;;;5112950;28;20535;-54
2023/01/30 11:16:31;;;;;;;8.63;1.77;;;;;;;;;;5112733;28;20491;-58
2023/01/30 11:19:00;;;;;;;11.50;2.50;;;;;;;;;;5112583;28;20446;-58
2023/01/30 11:21:28;;;;;;;7.47;2.57;;;;;;;;;;5112886;28;20467;-61
2023/01/30 11:23:56;;;;;;;10.87;2.53;;;;;;;;;;5112735;28;20454;-61
2023/01/30 11:26:25;;;;;;;6.27;1.90;;;;;;;;;;5112890;28;20459;-61
2023/01/30 11:28:52;;;;;;;9.37;1.87;;;;;;;;;;5112803;28;20824;-61
2023/01/30 11:31:20;;;;;;;7.40;2.30;;;;;;;;;;5112675;28;20447;-62
2023/01/30 11:33:59;;;;;;;9.18;3.10;;;;;;;;;;5112648;28;20627;-61
2023/01/30 11:36:27;;;;;;;7.00;1.87;;;;;;;;;;5115997;28;20226;-62
2023/01/30 11:38:58;;;;;;;8.67;2.33;;;;;;;;;;5116798;28;20480;-61
2023/01/30 11:41:27;;;;;;;8.13;2.90;;;;;;;;;;5116585;28;20449;-62
2023/01/30 11:44:00;;;;;;;7.63;2.50;;;;;;;;;;5115749;28;20533;-61
2023/01/30 11:46:30;;;;;;;9.83;2.50;;;;;;;;;;5116622;28;20609;-60
2023/01/30 11:49:11;;;;;;;9.87;2.20;;;;;;;;;;5116628;28;20488;-60
2023/01/30 11:51:39;;;;;;;10.83;2.43;;;;;;;;;;5116155;28;20454;-62
2023/01/30 11:54:06;;;;;;;8.83;2.40;;;;;;;;;;5116374;28;20812;-61
2023/01/30 11:56:36;;;;;;;9.90;2.50;;;;;;;;;;5115945;28;20528;-60
2023/01/30 11:59:03;;;;;;;17.97;3.43;;;;;;;;;;5116266;28;20489;-60
2023/01/30 12:01:32;;;;;;;10.00;3.03;;;;;;;;;;5116397;28;20448;-60
2023/01/30 12:04:00;;;;;;;14.07;3.13;;;;;;;;;;5116263;28;20808;-59
2023/01/30 12:06:30;;;;;;;7.23;1.63;;;;;;;;;;5115991;28;20446;-61
2023/01/30 12:08:58;;;;;;;9.50;2.43;;;;;;;;;;5116096;28;20541;-62
2023/01/30 12:11:26;;;;;;;6.63;1.87;;;;;;;;;;5116049;28;20580;-61
2023/01/30 12:13:55;;;;;;;11.27;2.80;;;;;;;;;;5116047;28;20506;-63
2023/01/30 12:16:24;;;;;;;5.07;2.27;;;;;;;;;;5115984;28;20484;-60
2023/01/30 12:18:55;;;;;;;8.17;2.83;;;;;;;;;;5115761;28;20450;-60
2023/01/30 12:21:27;;;;;;;4.30;2.20;;;;;;;;;;5116005;28;20453;-61
2023/01/30 12:23:57;;;;;;;10.60;2.60;;;;;;;;;;5115748;28;20463;-55
2023/01/30 12:26:27;;;;;;;9.60;2.27;;;;;;;;;;5115968;28;20446;-59
2023/01/30 12:28:57;;;;;;;10.20;1.90;;;;;;;;;;5115940;28;20449;-60
2023/01/30 12:31:26;;;;;;;7.47;2.40;;;;;;;;;;5116381;28;20468;-60
2023/01/30 12:33:55;;;;;;;5.23;1.50;;;;;;;;;;5115983;28;20539;-62
2023/01/30 12:36:28;;;;;;;5.57;1.30;;;;;;;;;;5115680;28;20507;-59
2023/01/30 12:39:05;;;;;;;5.40;1.40;;;;;;;;;;5115885;28;20452;-59
2023/01/30 12:41:44;;;;;;;3.80;1.43;;;;;;;;;;5115984;28;20445;-59
2023/01/30 12:44:19;;;;;;;12.50;2.10;;;;;;;;;;5115376;28;20467;-59
2023/01/30 12:46:55;;;;;;;11.97;2.37;;;;;;;;;;5114715;28;20487;-60
2023/01/30 12:49:31;;;;;;;9.03;2.20;;;;;;;;;;5115096;28;20443;-59
2023/01/30 12:52:24;;;;;;;9.63;3.50;;;;;;;;;;5115076;28;20592;-60
2023/01/30 12:54:57;;;;;;;10.60;2.70;;;;;;;;;;5114244;28;20439;-61
2023/01/30 12:57:29;;;;;;;6.80;2.50;;;;;;;;;;5114529;28;20806;-59
2023/01/30 13:00:04;;;;;;;10.73;2.83;;;;;;;;;;5114909;28;20451;-59
2023/01/30 13:02:47;;;;;;;8.20;2.53;;;;;;;;;;5114209;28;20479;-62
2023/01/30 13:05:30;;;;;;;8.77;2.57;;;;;;;;;;5115251;28;20490;-59
2023/01/30 13:08:04;;;;;;;9.32;2.97;;;;;;;;;;5114539;28;20445;-60
2023/01/30 13:10:34;;;;;;;11.90;3.10;;;;;;;;;;5115167;28;20184;-59
2023/01/30 13:13:05;;;;;;;12.55;3.40;;;;;;;;;;5113631;28;20952;-61
2023/01/30 13:15:38;;;;;;;10.53;4.40;;;;;;;;;;5114974;28;20211;-60
2023/01/30 13:18:12;;;;;;;10.25;4.55;;;;;;;;;;5113847;28;20461;-59
2023/01/30 13:20:50;;;;;;;8.47;2.23;;;;;;;;;;5114818;28;20610;-62
2023/01/30 13:23:18;;;;;;;10.32;3.42;;;;;;;;;;5113457;28;20443;-59
2023/01/30 13:25:49;;;;;;;5.27;2.10;;;;;;;;;;5114411;28;20253;-60
2023/01/30 13:28:18;;;;;;;8.37;1.80;;;;;;;;;;5114292;28;20442;-60
2023/01/30 13:30:47;;;;;;;10.35;3.33;;;;;;;;;;5113429;28;20447;-60
2023/01/30 13:33:16;;;;;;;6.13;2.35;;;;;;;;;;5114601;28;20779;-59
2023/01/30 13:35:46;;;;;;;5.73;2.17;;;;;;;;;;5114284;28;20223;-60
2023/01/30 13:38:16;;;;;;;3.87;2.43;;;;;;;;;;5114159;28;20523;-60
2023/01/30 13:40:44;;;;;;;6.93;2.57;;;;;;;;;;5114239;28;20539;-60
2023/01/30 13:43:14;;;;;;;21.47;13.00;;;;;;;;;;5113858;28;20808;-63
2023/01/30 13:45:43;;;;;;;6.63;2.40;;;;;;;;;;5113458;28;20465;-60
2023/01/30 13:48:17;;;;;;;6.97;2.93;;;;;;;;;;5114220;28;20555;-59
2023/01/30 13:50:54;;;;;;;9.50;2.43;;;;;;;;;;5114278;28;20453;-60
2023/01/30 13:53:25;;;;;;;8.70;2.93;;;;;;;;;;5114062;28;20456;-59
2023/01/30 13:55:56;;;;;;;7.57;2.50;;;;;;;;;;5114112;28;20806;-59
2023/01/30 13:58:33;;;;;;;7.90;2.70;;;;;;;;;;5112092;28;20491;-54
2023/01/30 14:01:00;;;;;;;6.90;2.60;;;;;;;;;;5113965;28;20279;-60
2023/01/30 14:03:32;;;;;;;7.67;1.90;;;;;;;;;;5113805;28;20467;-59
2023/01/30 14:06:17;;;;;;;10.43;3.10;;;;;;;;;;5113686;28;20451;-59
2023/01/30 14:08:52;;;;;;;7.20;1.83;;;;;;;;;;5113613;28;20378;-61
2023/01/30 14:11:37;;;;;;;11.25;2.20;;;;;;;;;;5113212;28;20913;-67
2023/01/30 14:14:06;;;;;;;9.17;2.17;;;;;;;;;;5113573;28;20187;-60
2023/01/30 14:16:44;;;;;;;6.13;2.30;;;;;;;;;;5113382;28;20543;-59
2023/01/30 14:19:30;;;;;;;10.33;2.70;;;;;;;;;;5113749;28;20444;-57
2023/01/30 14:21:57;;;;;;;8.23;2.53;;;;;;;;;;5113416;28;20445;-56
2023/01/30 14:24:25;;;;;;;11.20;2.97;;;;;;;;;;5112802;28;20449;-54
2023/01/30 14:27:02;;;;;;;10.70;2.37;;;;;;;;;;5113116;28;20484;-56
2023/01/30 14:29:48;;;;;;;10.40;2.10;;;;;;;;;;5113621;28;20537;-57
2023/01/30 14:32:30;;;;;;;8.17;3.47;;;;;;;;;;5113545;28;20480;-56
2023/01/30 14:35:21;;;;;;;12.38;3.40;;;;;;;;;;5113440;28;20494;-56
2023/01/30 14:37:49;;;;;;;5.03;1.58;;;;;;;;;;5113463;28;20587;-55
2023/01/30 14:40:29;;;;;;;7.73;2.50;;;;;;;;;;5113688;28;20203;-57
2023/01/30 14:43:11;;;;;;;7.38;2.25;;;;;;;;;;5113287;28;20491;-55
2023/01/30 14:45:45;;;;;;;4.60;1.70;;;;;;;;;;5112459;28;20307;-55
2023/01/30 14:48:29;;;;;;;8.88;2.22;;;;;;;;;;5113542;28;20457;-56